Time;durP1;ratioP1;P1;durP2;ratioP2;P2;SDS_P1;SDS_P2;PMS_P1;PMS_P2;Temp;Humidity;BMP_temperature;BMP_pressure;BME280_temperature;BME280_humidity;BME280_pressure;Samples;Min_cycle;Max_cycle;Signal;HPM_P1;HPM_P2
2022/08/15 00:00:40;;;;;;;6.22;5.30;;;20.80;99.90;;;;;;5033076;28;20046;-68
2022/08/15 00:03:27;;;;;;;5.57;4.88;;;20.90;99.90;;;;;;5020588;28;20100;-69
2022/08/15 00:06:04;;;;;;;5.82;5.22;;;21.00;99.90;;;;;;5037253;28;20042;-68
2022/08/15 00:08:32;;;;;;;6.35;5.60;;;21.10;99.90;;;;;;5036980;28;20080;-69
2022/08/15 00:11:11;;;;;;;5.95;4.95;;;21.10;99.90;;;;;;5036752;28;20568;-68
2022/08/15 00:13:38;;;;;;;5.63;5.03;;;21.20;99.90;;;;;;5037127;28;20053;-69
2022/08/15 00:16:05;;;;;;;6.07;5.20;;;21.20;99.90;;;;;;5038082;28;20481;-68
2022/08/15 00:18:32;;;;;;;5.75;4.88;;;21.20;99.90;;;;;;5036926;28;20057;-68
2022/08/15 00:20:59;;;;;;;5.70;4.88;;;21.20;99.90;;;;;;5037385;28;20056;-69
2022/08/15 00:23:26;;;;;;;6.15;5.28;;;21.10;99.90;;;;;;5037117;28;20045;-69
2022/08/15 00:25:57;;;;;;;7.53;5.57;;;21.10;99.90;;;;;;5036868;28;20050;-69
2022/08/15 00:28:27;;;;;;;7.03;5.80;;;21.20;99.90;;;;;;5037345;28;20051;-69
2022/08/15 00:30:54;;;;;;;5.72;5.13;;;21.20;99.90;;;;;;5036567;28;20054;-68
2022/08/15 00:33:20;;;;;;;7.25;5.82;;;21.20;99.90;;;;;;5037043;28;20417;-68
2022/08/15 00:35:49;;;;;;;7.32;6.00;;;21.20;99.90;;;;;;5036746;28;20053;-69
2022/08/15 00:38:19;;;;;;;7.07;6.38;;;21.20;99.90;;;;;;5036258;28;20454;-68
2022/08/15 00:43:41;;;;;;;5.90;5.30;;;21.20;99.90;;;;;;5036253;28;20498;-68
2022/08/15 00:46:10;;;;;;;7.63;5.38;;;21.10;99.90;;;;;;5036160;28;20486;-68
2022/08/15 00:48:42;;;;;;;6.20;5.60;;;21.10;99.90;;;;;;5036488;28;20048;-69
2022/08/15 00:51:21;;;;;;;7.65;6.00;;;21.10;99.90;;;;;;5036374;28;20056;-69
2022/08/15 00:53:52;;;;;;;6.03;5.43;;;21.00;99.90;;;;;;5036450;28;20099;-68
2022/08/15 00:56:21;;;;;;;6.38;5.47;;;20.90;99.90;;;;;;5036046;28;20483;-68
2022/08/15 00:58:47;;;;;;;6.60;5.47;;;20.80;99.90;;;;;;5036233;28;20045;-68
2022/08/15 01:01:14;;;;;;;6.60;5.75;;;20.80;99.90;;;;;;5036749;28;20049;-68
2022/08/15 01:03:44;;;;;;;6.32;5.72;;;20.90;99.90;;;;;;5036151;28;20051;-68
2022/08/15 01:06:10;;;;;;;7.93;5.65;;;20.90;99.90;;;;;;5036397;28;20052;-69
2022/08/15 01:08:39;;;;;;;8.48;6.15;;;20.90;99.90;;;;;;5036028;28;20052;-68
2022/08/15 01:11:09;;;;;;;6.95;6.15;;;20.90;99.90;;;;;;5036543;28;20053;-69
2022/08/15 01:13:35;;;;;;;7.38;5.93;;;20.80;99.90;;;;;;5035125;28;20095;-69
2022/08/15 01:16:01;;;;;;;7.00;6.18;;;20.80;99.90;;;;;;5036413;28;20096;-69
2022/08/15 01:18:28;;;;;;;8.40;6.63;;;20.80;99.90;;;;;;5018294;28;20099;-68
2022/08/15 01:20:58;;;;;;;6.30;5.70;;;20.80;99.90;;;;;;5018332;28;20085;-68
2022/08/15 01:23:45;;;;;;;7.60;6.00;;;20.80;99.90;;;;;;5035736;28;20041;-69
2022/08/15 01:26:14;;;;;;;6.97;5.55;;;20.80;99.90;;;;;;5036516;28;20060;-68
2022/08/15 01:28:43;;;;;;;6.57;5.55;;;20.90;99.90;;;;;;5036486;28;20046;-68
2022/08/15 01:31:18;;;;;;;7.18;5.82;;;20.90;99.90;;;;;;5017734;28;20564;-68
2022/08/15 01:33:57;;;;;;;6.80;6.10;;;20.90;99.90;;;;;;5035210;28;20561;-68
2022/08/15 01:36:26;;;;;;;7.85;6.47;;;20.90;99.90;;;;;;5036039;28;20180;-68
2022/08/15 01:39:16;;;;;;;7.07;6.38;;;20.90;99.90;;;;;;5035572;28;20103;-68
2022/08/15 01:41:46;;;;;;;7.45;6.13;;;20.90;99.90;;;;;;5035521;28;20049;-68
2022/08/15 01:44:56;;;;;;;7.13;5.95;;;20.90;99.90;;;;;;5017729;28;20089;-68
2022/08/15 01:47:27;;;;;;;7.07;6.35;;;20.80;99.90;;;;;;4955024;29;20134;-68
2022/08/15 01:50:24;;;;;;;8.50;6.45;;;20.90;99.90;;;;;;5021589;28;20141;-68
2022/08/15 01:52:59;;;;;;;;;;;20.90;99.90;;;;;;5036284;28;20480;-69
2022/08/15 01:55:36;;;;;;;8.20;6.65;;;20.90;99.90;;;;;;5035268;28;20258;-68
2022/08/15 01:58:05;;;;;;;7.93;6.00;;;20.90;99.90;;;;;;5035955;28;20216;-68
2022/08/15 02:00:31;;;;;;;6.70;5.60;;;20.90;99.90;;;;;;5035019;28;20095;-68
2022/08/15 02:02:58;;;;;;;6.88;6.03;;;20.90;99.90;;;;;;5035141;28;20387;-68
2022/08/15 02:05:23;;;;;;;7.30;6.20;;;20.90;99.90;;;;;;5035549;28;20365;-68
2022/08/15 02:07:49;;;;;;;8.38;7.10;;;20.90;99.90;;;;;;5035024;28;20046;-69
2022/08/15 02:10:15;;;;;;;8.52;6.80;;;20.90;99.90;;;;;;5035041;28;20052;-69
2022/08/15 02:12:41;;;;;;;7.85;6.50;;;20.80;99.90;;;;;;5034962;28;20053;-69
2022/08/15 02:15:15;;;;;;;7.43;6.63;;;20.70;99.90;;;;;;5035480;28;20052;-69
2022/08/15 02:17:44;;;;;;;7.97;6.63;;;20.60;99.90;;;;;;5034881;28;20516;-69
2022/08/15 02:20:13;;;;;;;8.63;6.63;;;20.50;99.90;;;;;;5001336;28;20049;-69
2022/08/15 02:22:39;;;;;;;8.90;6.95;;;20.40;99.90;;;;;;5017107;28;20129;-69
2022/08/15 02:25:06;;;;;;;8.68;6.82;;;20.40;99.90;;;;;;5034661;28;20191;-69
2022/08/15 02:27:35;;;;;;;7.50;6.20;;;20.30;99.90;;;;;;5035121;28;20094;-69
2022/08/15 02:30:08;;;;;;;7.07;6.05;;;20.30;99.90;;;;;;5017199;28;20041;-69
2022/08/15 02:32:36;;;;;;;7.85;6.22;;;20.30;99.90;;;;;;5016782;28;20057;-69
2022/08/15 02:35:04;;;;;;;6.90;6.20;;;20.30;99.90;;;;;;5016663;28;20050;-69
2022/08/15 02:37:30;;;;;;;7.38;6.45;;;20.30;99.90;;;;;;5034395;28;20049;-69
2022/08/15 02:39:55;;;;;;;6.40;5.78;;;20.40;99.90;;;;;;5034876;28;20050;-69
2022/08/15 02:42:21;;;;;;;6.80;5.97;;;20.40;99.90;;;;;;5016916;28;20076;-69
2022/08/15 02:44:49;;;;;;;6.43;5.68;;;20.30;99.90;;;;;;5034347;28;20144;-69
2022/08/15 02:47:18;;;;;;;7.32;6.28;;;20.30;99.90;;;;;;5017098;28;20057;-69
2022/08/15 02:49:45;;;;;;;7.70;6.72;;;20.20;99.90;;;;;;5034094;28;20124;-69
2022/08/15 02:52:12;;;;;;;8.68;6.55;;;20.20;99.90;;;;;;5034474;28;20084;-69
2022/08/15 02:54:38;;;;;;;8.75;6.18;;;20.20;99.90;;;;;;5034905;28;20052;-69
2022/08/15 02:57:06;;;;;;;7.45;6.57;;;20.10;99.90;;;;;;5034058;28;20479;-69
2022/08/15 02:59:32;;;;;;;8.18;6.63;;;20.20;99.90;;;;;;5033986;28;20456;-69
2022/08/15 03:01:57;;;;;;;8.25;6.50;;;20.10;99.90;;;;;;5017234;28;20050;-69
2022/08/15 03:04:25;;;;;;;9.38;6.32;;;20.10;99.90;;;;;;5033928;28;20371;-69
2022/08/15 03:06:53;;;;;;;6.97;6.03;;;20.10;99.90;;;;;;5033875;28;20053;-69
2022/08/15 03:09:20;;;;;;;9.45;7.38;;;20.20;99.90;;;;;;5033803;28;20513;-69
2022/08/15 03:11:46;;;;;;;8.48;6.22;;;20.20;99.90;;;;;;5034553;28;20418;-69
2022/08/15 03:14:16;;;;;;;7.85;6.45;;;20.20;99.90;;;;;;5033760;28;20077;-69
2022/08/15 03:16:45;;;;;;;8.35;6.50;;;20.10;99.90;;;;;;5034728;28;20103;-69
2022/08/15 03:19:22;;;;;;;7.28;5.78;;;20.10;99.90;;;;;;5034211;28;20486;-69
2022/08/15 03:21:48;;;;;;;7.57;6.38;;;20.10;99.90;;;;;;5017017;28;20064;-69
2022/08/15 03:24:16;;;;;;;8.98;7.20;;;20.00;99.90;;;;;;5033573;28;20087;-69
2022/08/15 03:26:46;;;;;;;8.70;6.28;;;19.90;99.90;;;;;;5034068;28;20379;-69
2022/08/15 03:29:18;;;;;;;7.57;6.78;;;19.80;99.90;;;;;;5015953;28;20087;-69
2022/08/15 03:31:47;;;;;;;7.25;6.35;;;19.70;99.90;;;;;;5016407;28;20132;-69
2022/08/15 03:34:16;;;;;;;7.50;5.97;;;19.60;99.90;;;;;;5033353;28;20057;-69
2022/08/15 03:36:45;;;;;;;7.88;7.00;;;19.50;99.90;;;;;;5033652;28;20050;-69
2022/08/15 03:39:11;;;;;;;8.07;6.97;;;19.30;99.90;;;;;;5033308;28;20046;-69
2022/08/15 03:41:37;;;;;;;7.65;6.85;;;19.20;99.90;;;;;;5033365;28;20045;-69
2022/08/15 03:44:04;;;;;;;8.43;6.93;;;19.10;99.90;;;;;;5033347;28;20053;-69
2022/08/15 03:46:30;;;;;;;7.85;6.13;;;19.10;99.90;;;;;;5033358;28;20087;-69
2022/08/15 03:48:56;;;;;;;8.30;6.15;;;19.00;99.90;;;;;;5033623;28;20045;-69
2022/08/15 03:51:24;;;;;;;6.90;6.20;;;18.90;99.90;;;;;;5032721;28;20534;-69
2022/08/15 03:53:59;;;;;;;8.27;7.10;;;18.80;99.90;;;;;;5033564;28;20081;-68
2022/08/15 03:56:28;;;;;;;7.05;6.35;;;18.80;99.90;;;;;;5032969;28;20061;-69
2022/08/15 03:58:56;;;;;;;7.13;5.85;;;18.80;99.90;;;;;;5033100;28;20041;-69
2022/08/15 04:01:26;;;;;;;8.23;6.13;;;18.80;99.90;;;;;;5033116;28;20144;-69
2022/08/15 04:03:52;;;;;;;7.30;6.35;;;18.80;99.90;;;;;;5033163;28;20041;-69
2022/08/15 04:06:21;;;;;;;7.65;6.88;;;18.90;99.90;;;;;;5032669;28;20053;-69
2022/08/15 04:08:50;;;;;;;8.57;6.82;;;19.00;99.90;;;;;;5033059;28;20120;-69
2022/08/15 04:11:17;;;;;;;7.15;6.22;;;19.10;99.90;;;;;;5032868;28;20456;-69
2022/08/15 04:13:45;;;;;;;7.78;6.15;;;19.10;99.90;;;;;;5032506;28;20501;-69
2022/08/15 04:16:10;;;;;;;7.47;6.45;;;19.20;99.90;;;;;;5032444;28;20526;-69
2022/08/15 04:18:37;;;;;;;7.15;6.22;;;19.10;99.90;;;;;;5033028;28;20057;-69
2022/08/15 04:21:07;;;;;;;7.63;6.40;;;19.10;99.90;;;;;;5033403;28;20041;-69
2022/08/15 04:23:34;;;;;;;6.95;5.90;;;19.10;99.90;;;;;;5032995;28;20049;-69
2022/08/15 04:25:59;;;;;;;8.55;7.07;;;19.10;99.90;;;;;;5032908;28;20050;-69
2022/08/15 04:28:29;;;;;;;7.32;6.28;;;19.10;99.90;;;;;;5015727;28;20060;-69
2022/08/15 04:30:55;;;;;;;9.05;6.38;;;19.10;99.90;;;;;;5032890;28;20127;-69
2022/08/15 04:33:25;;;;;;;6.95;6.22;;;19.10;99.90;;;;;;5033204;28;20064;-69
2022/08/15 04:35:58;;;;;;;10.60;6.75;;;19.20;99.90;;;;;;5032851;28;20059;-69
2022/08/15 04:38:24;;;;;;;8.07;6.38;;;19.20;99.90;;;;;;5033304;28;20041;-69
2022/08/15 04:40:50;;;;;;;9.07;7.45;;;19.10;99.90;;;;;;5032748;28;20052;-69
2022/08/15 04:43:18;;;;;;;9.48;7.28;;;19.10;99.90;;;;;;5016120;28;20089;-69
2022/08/15 04:45:44;;;;;;;7.95;7.07;;;19.10;99.90;;;;;;5032959;28;20072;-69
2022/08/15 04:48:14;;;;;;;7.57;6.78;;;19.00;99.90;;;;;;5033175;28;20045;-69
2022/08/15 04:50:40;;;;;;;8.88;7.15;;;19.00;99.90;;;;;;5037183;28;20049;-69
2022/08/15 04:53:07;;;;;;;7.45;6.60;;;18.90;99.90;;;;;;5036436;28;20397;-69
2022/08/15 04:55:35;;;;;;;7.85;6.82;;;18.90;99.90;;;;;;5036328;28;20045;-69
2022/08/15 04:58:02;;;;;;;8.55;6.78;;;18.90;99.90;;;;;;5036286;28;20079;-69
2022/08/15 05:00:31;;;;;;;7.97;6.68;;;19.00;99.90;;;;;;5019380;28;20065;-69
2022/08/15 05:03:14;;;;;;;10.85;7.30;;;19.10;99.90;;;;;;5037108;28;20386;-69
2022/08/15 05:05:44;;;;;;;9.35;6.82;;;19.30;99.90;;;;;;5036547;28;20398;-69
2022/08/15 05:08:11;;;;;;;8.30;6.68;;;19.30;99.90;;;;;;5036680;28;20180;-69
2022/08/15 05:10:37;;;;;;;7.45;6.53;;;19.40;99.90;;;;;;5018389;28;20053;-69
2022/08/15 05:13:14;;;;;;;7.43;6.63;;;19.50;99.90;;;;;;5018616;28;20077;-69
2022/08/15 05:15:42;;;;;;;8.65;6.22;;;19.60;99.90;;;;;;5036562;28;20060;-69
2022/08/15 05:18:08;;;;;;;7.50;6.10;;;19.70;99.90;;;;;;5002086;28;20042;-69
2022/08/15 05:20:34;;;;;;;7.82;6.32;;;19.70;99.90;;;;;;5035439;28;20045;-69
2022/08/15 05:23:11;;;;;;;8.77;6.47;;;19.80;99.90;;;;;;5018127;28;20045;-69
2022/08/15 05:25:41;;;;;;;7.70;6.78;;;19.80;99.90;;;;;;5035831;28;20136;-69
2022/08/15 05:28:07;;;;;;;7.70;6.90;;;19.80;99.90;;;;;;5036544;28;20046;-69
2022/08/15 05:30:33;;;;;;;7.35;6.55;;;19.80;99.90;;;;;;5036034;28;20056;-68
2022/08/15 05:33:11;;;;;;;9.90;7.90;;;19.80;99.90;;;;;;5036506;28;20096;-69
2022/08/15 05:35:41;;;;;;;9.05;7.75;;;19.80;99.90;;;;;;5017896;28;20045;-68
2022/08/15 05:38:21;;;;;;;8.85;7.93;;;19.80;99.90;;;;;;5035786;28;20493;-69
2022/08/15 05:41:22;;;;;;;9.40;7.95;;;19.80;99.90;;;;;;5036443;28;20045;-69
2022/08/15 05:44:02;;;;;;;10.20;7.03;;;19.80;99.90;;;;;;5009833;28;20194;-69
2022/08/15 05:46:43;;;;;;;9.70;7.95;;;19.70;99.90;;;;;;5035435;28;20085;-69
2022/08/15 05:49:27;;;;;;;10.10;8.07;;;19.70;99.90;;;;;;5036183;28;20418;-69
2022/08/15 05:51:54;;;;;;;8.85;7.55;;;19.70;99.90;;;;;;5035372;28;20481;-69
2022/08/15 05:54:24;;;;;;;9.07;7.50;;;19.80;99.90;;;;;;5018083;28;20061;-69
2022/08/15 05:57:30;;;;;;;11.32;8.23;;;20.00;99.90;;;;;;5035178;28;20056;-69
2022/08/15 06:00:03;;;;;;;8.55;7.55;;;20.00;99.90;;;;;;5011847;28;20088;-68
2022/08/15 06:02:41;;;;;;;10.02;7.18;;;20.10;99.90;;;;;;5017854;28;20050;-69
2022/08/15 06:05:20;;;;;;;7.97;7.03;;;20.10;99.90;;;;;;5035199;28;20088;-69
2022/08/15 06:07:48;;;;;;;8.45;7.25;;;20.20;99.90;;;;;;5035613;28;20041;-66
2022/08/15 06:10:30;;;;;;;8.18;7.07;;;20.20;99.90;;;;;;5034977;28;20195;-65
2022/08/15 06:13:26;;;;;;;7.43;6.55;;;20.30;99.90;;;;;;5017544;28;20131;-65
2022/08/15 06:16:23;;;;;;;9.55;8.10;;;20.40;99.90;;;;;;5035456;28;20120;-65
2022/08/15 06:18:49;;;;;;;8.90;7.38;;;20.50;99.90;;;;;;5013517;28;20541;-65
2022/08/15 06:21:26;;;;;;;8.80;7.43;;;20.50;99.90;;;;;;5034593;28;20081;-65
2022/08/15 06:24:07;;;;;;;8.02;7.25;;;20.60;99.90;;;;;;5017849;28;20348;-66
2022/08/15 06:26:52;;;;;;;8.18;7.18;;;20.70;99.90;;;;;;5017086;28;20045;-65
2022/08/15 06:29:45;;;;;;;8.77;7.78;;;20.80;99.90;;;;;;5035319;28;20049;-65
2022/08/15 06:32:12;;;;;;;8.70;7.78;;;20.90;99.90;;;;;;5034339;28;20131;-66
2022/08/15 06:35:02;;;;;;;8.50;7.63;;;20.90;99.90;;;;;;5034771;28;20371;-66
2022/08/15 06:37:39;;;;;;;7.93;7.00;;;21.00;99.90;;;;;;5034377;28;20116;-65
2022/08/15 06:40:20;;;;;;;8.50;7.60;;;21.10;99.90;;;;;;5034683;28;20462;-64
2022/08/15 06:42:46;;;;;;;8.65;7.75;;;21.10;99.90;;;;;;5035151;28;20046;-65
2022/08/15 06:45:23;;;;;;;9.60;8.20;;;21.10;99.90;;;;;;5034402;28;20147;-65
2022/08/15 06:47:53;;;;;;;9.45;7.75;;;21.20;99.90;;;;;;5034800;28;20049;-65
2022/08/15 06:50:24;;;;;;;8.85;7.95;;;21.20;99.90;;;;;;5034104;28;20042;-65
2022/08/15 06:52:53;;;;;;;8.77;6.65;;;21.30;99.90;;;;;;5034434;28;20068;-65
2022/08/15 06:55:22;;;;;;;7.60;6.80;;;21.40;99.90;;;;;;5034037;28;20508;-65
2022/08/15 06:57:59;;;;;;;10.05;7.97;;;21.40;99.90;;;;;;5033913;28;20046;-65
2022/08/15 07:00:50;;;;;;;9.05;8.10;;;21.50;99.90;;;;;;5016366;28;20045;-65
2022/08/15 07:03:36;;;;;;;8.98;8.02;;;21.60;99.90;;;;;;5034760;28;20107;-65
2022/08/15 07:06:03;;;;;;;9.80;7.78;;;21.60;99.90;;;;;;5033580;28;20049;-65
2022/08/15 07:08:57;;;;;;;8.57;7.50;;;21.60;99.90;;;;;;5016160;28;20045;-65
2022/08/15 07:11:47;;;;;;;8.57;7.68;;;21.80;99.90;;;;;;5032849;28;20089;-66
2022/08/15 07:14:21;;;;;;;9.25;7.50;;;21.80;99.90;;;;;;5015942;28;20104;-67
2022/08/15 07:16:56;;;;;;;10.07;8.07;;;21.90;99.90;;;;;;5033861;28;20085;-66
2022/08/15 07:19:21;;;;;;;7.88;7.07;;;21.90;99.90;;;;;;5033649;28;20053;-66
2022/08/15 07:21:47;;;;;;;9.52;6.95;;;22.00;99.90;;;;;;5033683;28;20037;-66
2022/08/15 07:24:16;;;;;;;9.25;7.72;;;22.10;99.90;;;;;;5033461;28;20430;-65
2022/08/15 07:26:55;;;;;;;9.27;7.35;;;22.20;99.90;;;;;;5033928;28;20037;-65
2022/08/15 07:29:35;;;;;;;9.52;7.10;;;22.30;99.90;;;;;;5016864;28;20124;-67
2022/08/15 07:32:07;;;;;;;8.60;7.07;;;22.40;99.90;;;;;;5034302;28;20445;-66
2022/08/15 07:34:33;;;;;;;8.68;7.78;;;22.50;99.90;;;;;;5033116;28;20577;-66
2022/08/15 07:37:03;;;;;;;9.32;7.93;;;22.50;99.90;;;;;;5015854;28;20053;-66
2022/08/15 07:39:33;;;;;;;7.55;6.75;;;22.60;99.90;;;;;;5016294;28;20045;-66
2022/08/15 07:42:15;;;;;;;8.82;7.22;;;22.70;99.90;;;;;;5033832;28;20049;-66
2022/08/15 07:44:57;;;;;;;10.27;7.75;;;22.80;99.90;;;;;;5033881;28;20053;-65
2022/08/15 07:47:28;;;;;;;9.13;7.63;;;22.80;99.90;;;;;;5033070;28;20475;-65
2022/08/15 07:50:39;;;;;;;8.07;7.15;;;22.90;99.90;;;;;;5033702;28;20418;-65
2022/08/15 07:53:23;;;;;;;8.20;7.40;;;23.00;99.90;;;;;;5033252;28;20045;-66
2022/08/15 07:56:16;;;;;;;7.50;6.70;;;23.20;99.90;;;;;;5033461;28;20049;-65
2022/08/15 07:58:44;;;;;;;8.48;6.93;;;23.30;99.90;;;;;;5033491;28;20072;-66
2022/08/15 08:01:25;;;;;;;7.15;6.45;;;23.30;99.90;;;;;;5033156;28;20150;-67
2022/08/15 08:04:09;;;;;;;7.20;6.22;;;23.50;99.90;;;;;;5015979;28;20045;-65
2022/08/15 08:06:55;;;;;;;6.45;5.75;;;23.60;99.90;;;;;;5033101;28;20053;-65
2022/08/15 08:09:23;;;;;;;6.53;5.03;;;23.70;99.90;;;;;;5033642;28;20379;-65
2022/08/15 08:11:57;;;;;;;5.13;4.63;;;23.90;99.90;;;;;;5033709;28;20076;-65
2022/08/15 08:14:49;;;;;;;5.15;4.47;;;23.90;99.90;;;;;;5033532;28;20148;-65
2022/08/15 08:17:36;;;;;;;5.78;4.53;;;24.00;99.90;;;;;;5033085;28;20101;-65
2022/08/15 08:20:26;;;;;;;5.15;4.18;;;24.10;99.90;;;;;;5032973;28;20049;-66
2022/08/15 08:23:04;;;;;;;5.95;4.22;;;24.30;99.90;;;;;;5035536;28;20057;-66
2022/08/15 08:25:57;;;;;;;7.03;4.60;;;24.50;99.90;;;;;;5036979;28;20060;-65
2022/08/15 08:28:29;;;;;;;4.38;3.97;;;24.70;99.90;;;;;;5036813;28;20049;-65
2022/08/15 08:30:55;;;;;;;5.13;3.90;;;25.00;99.90;;;;;;5036631;28;20049;-66
2022/08/15 08:33:37;;;;;;;4.75;4.00;;;25.20;99.90;;;;;;5037255;28;20064;-65
2022/08/15 08:36:21;;;;;;;5.15;4.30;;;25.20;99.90;;;;;;5037096;28;20444;-66
2022/08/15 08:39:02;;;;;;;5.70;4.35;;;25.20;99.90;;;;;;5037065;28;20069;-65
2022/08/15 08:42:10;;;;;;;4.30;3.75;;;25.30;99.90;;;;;;5037164;28;20053;-66
2022/08/15 08:45:02;;;;;;;5.85;4.40;;;25.30;99.90;;;;;;4956084;29;20058;-65
2022/08/15 08:47:47;;;;;;;4.93;4.10;;;25.20;99.90;;;;;;5036605;28;20127;-66
2022/08/15 08:50:41;;;;;;;4.80;4.30;;;25.20;99.90;;;;;;5036735;28;20402;-65
2022/08/15 08:53:21;;;;;;;5.55;4.30;;;25.40;99.90;;;;;;5036500;28;20054;-65
2022/08/15 08:56:03;;;;;;;5.80;4.80;;;25.50;99.90;;;;;;5036881;28;20455;-66
2022/08/15 08:58:36;;;;;;;4.88;4.25;;;25.70;99.90;;;;;;5036367;28;20050;-65
2022/08/15 09:01:07;;;;;;;6.43;4.68;;;25.80;99.90;;;;;;5036301;28;20111;-66
2022/08/15 09:03:40;;;;;;;6.18;4.50;;;25.80;99.90;;;;;;5036744;28;20095;-65
2022/08/15 09:06:10;;;;;;;5.38;4.13;;;25.80;99.90;;;;;;5019459;28;20045;-65
2022/08/15 09:08:51;;;;;;;5.18;4.40;;;25.90;99.90;;;;;;5036516;28;20368;-65
2022/08/15 09:11:22;;;;;;;5.15;4.65;;;25.90;99.90;;;;;;5036321;28;20088;-65
2022/08/15 09:13:49;;;;;;;5.32;4.38;;;25.80;99.90;;;;;;5036058;28;20050;-65
2022/08/15 09:16:37;;;;;;;5.72;4.90;;;25.70;99.90;;;;;;5018373;28;20132;-65
2022/08/15 09:19:16;;;;;;;6.05;4.90;;;25.80;99.90;;;;;;5018419;28;20107;-65
2022/08/15 09:21:43;;;;;;;4.93;4.25;;;26.00;99.90;;;;;;5035945;28;20486;-65
2022/08/15 09:24:11;;;;;;;5.65;4.40;;;26.10;99.90;;;;;;5035794;28;20045;-64
2022/08/15 09:26:43;;;;;;;5.55;4.50;;;26.20;99.90;;;;;;5036533;28;20106;-65
2022/08/15 09:29:42;;;;;;;5.78;5.18;;;26.30;99.90;;;;;;5035768;28;20559;-65
2022/08/15 09:32:28;;;;;;;6.15;4.95;;;26.50;99.90;;;;;;5035873;28;20061;-65
2022/08/15 09:35:16;;;;;;;6.38;5.15;;;26.60;99.90;;;;;;5034940;28;20060;-65
2022/08/15 09:38:00;;;;;;;5.60;5.10;;;26.70;99.90;;;;;;5035602;28;20090;-65
2022/08/15 09:40:40;;;;;;;7.03;5.60;;;26.70;99.90;;;;;;5035532;28;20046;-64
2022/08/15 09:43:44;;;;;;;6.43;5.43;;;26.70;99.90;;;;;;5035268;28;20508;-65
2022/08/15 09:46:24;;;;;;;6.10;5.40;;;26.70;99.90;;;;;;5035389;28;20042;-65
2022/08/15 09:49:02;;;;;;;6.30;5.70;;;26.60;99.90;;;;;;5035472;28;20053;-64
2022/08/15 09:51:58;;;;;;;7.28;5.93;;;26.50;99.90;;;;;;5036035;28;20084;-65
2022/08/15 09:54:28;;;;;;;8.50;6.13;;;26.40;99.90;;;;;;5035912;28;20379;-64
2022/08/15 09:57:39;;;;;;;7.63;6.10;;;26.30;99.90;;;;;;5035656;28;20045;-65
2022/08/15 10:00:17;;;;;;;7.90;6.95;;;26.10;99.90;;;;;;5031244;28;20107;-65
2022/08/15 10:02:45;;;;;;;8.38;7.03;;;26.00;99.90;;;;;;5018043;28;20049;-65
2022/08/15 10:05:23;;;;;;;8.30;7.50;;;25.90;99.90;;;;;;5035110;28;20049;-65
2022/08/15 10:07:51;;;;;;;11.05;7.65;;;25.80;99.90;;;;;;5035143;28;20037;-65
2022/08/15 10:10:19;;;;;;;9.95;8.50;;;25.70;99.90;;;;;;5035576;28;20049;-65
2022/08/15 10:13:22;;;;;;;10.98;8.85;;;25.70;99.90;;;;;;5035382;28;20056;-65
2022/08/15 10:15:48;;;;;;;10.07;8.98;;;25.70;99.90;;;;;;5010142;28;20061;-64
2022/08/15 10:18:23;;;;;;;9.65;8.65;;;25.70;99.90;;;;;;5034763;28;20077;-64
2022/08/15 10:20:51;;;;;;;9.70;8.70;;;25.70;99.90;;;;;;5034780;28;20041;-65
2022/08/15 10:23:20;;;;;;;9.20;7.93;;;25.70;99.90;;;;;;5034835;28;20056;-65
2022/08/15 10:25:48;;;;;;;9.25;8.20;;;25.70;99.90;;;;;;5017304;28;20061;-64
2022/08/15 10:28:13;;;;;;;10.35;8.70;;;25.70;99.90;;;;;;5034647;28;20125;-64
2022/08/15 10:30:46;;;;;;;9.48;8.48;;;25.70;99.90;;;;;;5034413;28;20089;-64
2022/08/15 10:33:27;;;;;;;9.35;8.45;;;25.60;99.90;;;;;;5017143;28;20504;-64
2022/08/15 10:36:02;;;;;;;10.70;9.00;;;25.60;99.90;;;;;;5035098;28;20049;-64
2022/08/15 10:38:29;;;;;;;8.70;7.80;;;25.60;99.90;;;;;;5017488;28;20465;-64
2022/08/15 10:41:18;;;;;;;10.70;9.60;;;25.70;99.90;;;;;;5034460;28;20049;-64
2022/08/15 10:44:20;;;;;;;9.07;8.18;;;25.80;99.90;;;;;;5034327;28;20132;-66
2022/08/15 10:47:26;;;;;;;9.23;8.32;;;25.70;99.90;;;;;;5033721;28;20120;-65
2022/08/15 10:50:28;;;;;;;9.45;8.55;;;25.80;99.90;;;;;;4922061;29;20097;-66
2022/08/15 10:53:13;;;;;;;10.20;8.80;;;25.80;99.90;;;;;;5034168;28;20088;-65
2022/08/15 10:55:40;;;;;;;9.02;8.10;;;25.80;99.90;;;;;;5034156;28;20049;-65
2022/08/15 10:58:32;;;;;;;9.43;8.43;;;25.80;99.90;;;;;;5033977;28;20433;-65
2022/08/15 11:01:06;;;;;;;9.70;8.70;;;25.70;99.90;;;;;;5034602;28;20046;-64
2022/08/15 11:03:46;;;;;;;8.63;7.80;;;25.70;99.90;;;;;;5034259;28;20049;-65
2022/08/15 11:06:15;;;;;;;9.73;8.65;;;25.70;99.90;;;;;;5034345;28;20373;-65
2022/08/15 11:09:06;;;;;;;10.40;8.63;;;25.70;99.90;;;;;;5034083;28;20045;-64
2022/08/15 11:11:37;;;;;;;9.32;8.02;;;25.70;99.90;;;;;;5024403;28;20449;-64
2022/08/15 11:14:19;;;;;;;9.25;8.20;;;25.70;99.90;;;;;;5034418;28;20052;-65
2022/08/15 11:16:51;;;;;;;9.02;7.63;;;25.70;99.90;;;;;;5034212;28;20045;-65
2022/08/15 11:19:32;;;;;;;10.63;8.77;;;25.70;99.90;;;;;;5033850;28;20485;-66
2022/08/15 11:22:01;;;;;;;9.30;8.27;;;25.60;99.90;;;;;;5034423;28;20426;-65
2022/08/15 11:24:39;;;;;;;10.00;9.00;;;25.60;99.90;;;;;;5033597;28;20041;-66
2022/08/15 11:27:17;;;;;;;9.98;8.98;;;25.60;99.90;;;;;;5034407;28;20450;-65
2022/08/15 11:29:45;;;;;;;11.13;9.93;;;25.70;99.90;;;;;;5016224;28;20052;-65
2022/08/15 11:32:21;;;;;;;10.32;9.30;;;25.70;99.90;;;;;;5016259;28;20467;-65
2022/08/15 11:34:47;;;;;;;11.77;9.55;;;25.90;99.90;;;;;;5034258;28;20045;-65
2022/08/15 11:37:20;;;;;;;11.20;10.00;;;26.00;99.90;;;;;;5033355;28;20041;-65
2022/08/15 11:39:58;;;;;;;11.10;9.48;;;26.10;99.90;;;;;;5034207;28;20045;-65
2022/08/15 11:42:25;;;;;;;11.35;10.15;;;26.10;99.90;;;;;;5033663;28;20107;-65
2022/08/15 11:44:59;;;;;;;10.30;9.23;;;26.20;99.90;;;;;;5033302;28;20050;-65
2022/08/15 11:47:33;;;;;;;12.60;10.45;;;26.20;99.90;;;;;;5033419;28;20134;-65
2022/08/15 11:50:07;;;;;;;11.00;9.30;;;26.10;99.90;;;;;;5033308;28;20072;-65
2022/08/15 11:52:45;;;;;;;11.50;10.30;;;26.10;99.90;;;;;;5033800;28;20081;-66
2022/08/15 11:55:16;;;;;;;11.88;10.30;;;26.10;99.90;;;;;;5033147;28;20053;-65
2022/08/15 11:57:45;;;;;;;11.07;9.95;;;26.10;99.90;;;;;;5032027;28;20045;-65
2022/08/15 12:00:24;;;;;;;12.68;9.60;;;26.20;99.90;;;;;;5033689;28;20087;-66
2022/08/15 12:02:51;;;;;;;11.45;10.25;;;26.30;99.90;;;;;;5033680;28;20057;-65
2022/08/15 12:05:31;;;;;;;10.10;9.10;;;26.50;99.90;;;;;;5015461;28;20486;-65
2022/08/15 12:08:00;;;;;;;11.15;8.90;;;26.70;99.90;;;;;;5033581;28;20128;-65
2022/08/15 12:10:39;;;;;;;11.25;10.05;;;27.00;99.90;;;;;;5033210;28;20052;-66
2022/08/15 12:13:06;;;;;;;10.90;9.80;;;27.10;99.90;;;;;;5015660;28;20095;-66
2022/08/15 12:15:32;;;;;;;13.57;11.70;;;27.10;99.90;;;;;;5032951;28;20053;-65
2022/08/15 12:18:24;;;;;;;12.80;10.95;;;27.20;99.90;;;;;;5015315;28;20068;-66
2022/08/15 12:21:07;;;;;;;12.90;11.60;;;27.10;99.90;;;;;;5022450;28;20068;-66
2022/08/15 12:23:42;;;;;;;12.80;11.50;;;27.00;99.90;;;;;;5015315;28;20053;-67
2022/08/15 12:26:11;;;;;;;12.00;10.77;;;27.00;99.90;;;;;;5033440;28;20390;-66
2022/08/15 12:28:38;;;;;;;12.27;11.00;;;27.00;99.90;;;;;;5015378;28;20402;-66
2022/08/15 12:31:22;;;;;;;12.43;11.13;;;26.90;99.90;;;;;;5033394;28;20115;-65
2022/08/15 12:34:00;;;;;;;12.77;11.38;;;26.80;99.90;;;;;;5015408;28;20494;-66
2022/08/15 12:36:27;;;;;;;12.18;10.93;;;26.70;99.90;;;;;;5032858;28;20103;-66
2022/08/15 12:38:53;;;;;;;12.80;11.23;;;26.70;99.90;;;;;;5032758;28;20046;-67
2022/08/15 12:41:18;;;;;;;12.27;10.95;;;26.60;99.90;;;;;;5032744;28;20049;-66
2022/08/15 12:43:44;;;;;;;12.88;11.23;;;26.60;99.90;;;;;;5032681;28;20060;-66
2022/08/15 12:46:10;;;;;;;11.23;10.00;;;26.60;99.90;;;;;;5032944;28;20131;-65
2022/08/15 12:48:39;;;;;;;13.82;11.73;;;26.70;99.90;;;;;;5032605;28;20475;-66
2022/08/15 12:51:07;;;;;;;12.98;11.13;;;26.70;99.90;;;;;;5032512;28;20053;-66
2022/08/15 12:53:33;;;;;;;14.45;11.63;;;26.70;99.90;;;;;;5032567;28;20060;-65
2022/08/15 12:55:59;;;;;;;13.60;12.20;;;26.70;99.90;;;;;;5032185;28;20505;-65
2022/08/15 12:58:26;;;;;;;12.65;11.35;;;26.80;99.90;;;;;;5032319;28;20033;-65
2022/08/15 13:00:54;;;;;;;13.38;11.48;;;26.80;99.90;;;;;;5033035;28;20050;-65
2022/08/15 13:03:23;;;;;;;12.95;11.55;;;26.90;99.90;;;;;;5033204;28;20203;-65
2022/08/15 13:05:59;;;;;;;15.15;11.80;;;26.80;99.90;;;;;;5032866;28;20044;-65
2022/08/15 13:08:24;;;;;;;;;;;26.90;99.90;;;;;;5032846;28;20087;-65
2022/08/15 13:10:51;;;;;;;10.93;9.88;;;26.80;99.90;;;;;;5001487;28;19929;-65
2022/08/15 13:13:16;;;;;;;9.70;8.70;;;26.80;99.90;;;;;;5036241;28;20061;-65
2022/08/15 13:15:43;;;;;;;10.23;9.27;;;26.70;99.90;;;;;;5035847;28;20444;-66
2022/08/15 13:18:22;;;;;;;13.50;8.48;;;26.80;99.90;;;;;;5035918;28;20077;-65
2022/08/15 13:23:40;;;;;;;8.35;7.28;;;26.90;99.90;;;;;;5036590;28;20071;-65
2022/08/15 13:26:15;;;;;;;7.88;7.18;;;26.90;99.90;;;;;;5018252;28;20061;-66